Time;durP1;ratioP1;P1;durP2;ratioP2;P2;SDS_P1;SDS_P2;PMS_P1;PMS_P2;Temp;Humidity;BMP_temperature;BMP_pressure;BME280_temperature;BME280_humidity;BME280_pressure;Samples;Min_cycle;Max_cycle;Signal;HPM_P1;HPM_P2
2022/04/25 00:01:31;;;;;;;;;;;7.00;99.90;;;;;;5101595;28;20044;-67
2022/04/25 00:03:57;;;;;;;10.57;7.05;;;7.00;99.90;;;;;;5100584;28;19920;-68
2022/04/25 00:06:22;;;;;;;;;;;7.00;99.90;;;;;;5102842;28;20040;-67
2022/04/25 00:08:48;;;;;;;13.60;7.40;;;7.00;99.90;;;;;;5105413;28;19916;-66
2022/04/25 00:11:13;;;;;;;;;;;7.00;99.90;;;;;;5102578;28;20075;-67
2022/04/25 00:13:39;;;;;;;11.00;6.63;;;7.00;99.90;;;;;;5100646;28;19920;-67
2022/04/25 00:16:05;;;;;;;11.23;8.20;;;7.10;99.90;;;;;;5101092;28;20632;-67
2022/04/25 00:18:31;;;;;;;10.25;8.02;;;7.10;99.90;;;;;;5089961;28;20127;-68
2022/04/25 00:20:56;;;;;;;;;;;7.10;99.90;;;;;;5091279;28;20142;-67
2022/04/25 00:23:23;;;;;;;14.70;7.45;;;7.10;99.90;;;;;;5088149;28;19923;-68
2022/04/25 00:25:49;;;;;;;10.50;7.63;;;7.10;99.90;;;;;;5088523;28;20043;-65
2022/04/25 00:28:14;;;;;;;;;;;7.10;99.90;;;;;;5085899;28;20045;-67
2022/04/25 00:30:40;;;;;;;11.32;7.15;;;7.10;99.90;;;;;;5081462;28;19923;-68
2022/04/25 00:33:06;;;;;;;11.27;8.20;;;7.10;99.90;;;;;;5084088;28;20054;-67
2022/04/25 00:35:32;;;;;;;12.90;7.57;;;7.10;99.90;;;;;;5087427;28;20044;-70
2022/04/25 00:37:57;;;;;;;;;;;7.10;99.90;;;;;;5080221;28;20037;-65
2022/04/25 00:40:24;;;;;;;11.63;7.82;;;7.10;99.90;;;;;;5087852;28;19927;-65
2022/04/25 00:42:50;;;;;;;9.90;6.57;;;7.10;99.90;;;;;;5087565;28;20040;-66
2022/04/25 00:45:16;;;;;;;;;;;7.10;99.90;;;;;;5088333;28;20172;-65
2022/04/25 00:47:44;;;;;;;7.13;4.97;;;7.10;99.90;;;;;;5087450;28;19930;-67
2022/04/25 00:50:11;;;;;;;9.50;7.18;;;7.20;99.90;;;;;;5088079;28;20136;-66
2022/04/25 00:52:37;;;;;;;9.40;6.78;;;7.20;99.90;;;;;;5085572;28;20036;-67
2022/04/25 00:55:08;;;;;;;10.43;7.32;;;7.20;99.90;;;;;;5075470;28;20036;-66
2022/04/25 00:57:35;;;;;;;9.15;6.80;;;7.20;99.90;;;;;;5086651;28;20097;-66
2022/04/25 01:00:02;;;;;;;10.73;7.18;;;7.20;99.90;;;;;;5088063;28;20521;-65
2022/04/25 01:02:28;;;;;;;10.90;7.13;;;7.20;99.90;;;;;;5082395;28;20055;-66
2022/04/25 01:04:54;;;;;;;;;;;7.20;99.90;;;;;;5088342;28;20112;-65
2022/04/25 01:07:20;;;;;;;12.23;6.70;;;7.20;99.90;;;;;;5089757;28;20453;-69
2022/04/25 01:09:46;;;;;;;10.05;7.13;;;7.20;99.90;;;;;;5096275;28;20062;-67
2022/04/25 01:12:12;;;;;;;8.48;6.50;;;7.20;99.90;;;;;;5107087;28;20049;-67
2022/04/25 01:14:38;;;;;;;9.57;6.90;;;7.20;99.90;;;;;;5091522;28;20040;-65
2022/04/25 01:17:05;;;;;;;;;;;7.20;99.90;;;;;;5087232;28;20123;-66
2022/04/25 01:19:31;;;;;;;14.77;5.80;;;7.20;99.90;;;;;;5087681;28;19916;-65
2022/04/25 01:22:07;;;;;;;8.07;6.28;;;7.20;99.90;;;;;;5087121;28;20578;-66
2022/04/25 01:27:17;;;;;;;7.00;5.32;;;7.10;99.90;;;;;;5087340;28;20042;-68
2022/04/25 01:29:44;;;;;;;;;;;7.10;99.90;;;;;;5087008;28;20090;-67
2022/04/25 01:32:10;;;;;;;7.50;5.45;;;7.10;99.90;;;;;;5084873;28;19916;-65
2022/04/25 01:34:37;;;;;;;8.65;5.88;;;7.00;99.90;;;;;;5086210;28;20032;-66
2022/04/25 01:37:11;;;;;;;9.00;5.80;;;6.90;99.90;;;;;;5088615;28;20124;-67
2022/04/25 01:39:47;;;;;;;8.13;5.50;;;6.80;99.90;;;;;;5091555;28;20043;-69
2022/04/25 01:42:13;;;;;;;8.40;5.88;;;6.80;99.90;;;;;;5083269;28;20036;-66
2022/04/25 01:44:39;;;;;;;;;;;6.80;99.90;;;;;;5086471;28;20447;-68
2022/04/25 01:47:06;;;;;;;6.75;3.97;;;6.80;99.90;;;;;;5086989;28;19923;-68
2022/04/25 01:49:33;;;;;;;7.63;4.35;;;6.80;99.90;;;;;;5086919;28;20521;-66
2022/04/25 01:52:03;;;;;;;7.10;4.82;;;6.90;99.90;;;;;;5083293;28;20126;-67
2022/04/25 01:54:29;;;;;;;4.80;3.97;;;6.80;99.90;;;;;;5086647;28;20131;-66
2022/04/25 01:56:55;;;;;;;;;;;6.80;99.90;;;;;;5083862;28;20128;-67
2022/04/25 01:59:22;;;;;;;5.13;4.13;;;6.90;99.90;;;;;;5086289;28;19989;-67
2022/04/25 02:01:48;;;;;;;5.50;4.30;;;6.90;99.90;;;;;;5085137;28;20093;-68
2022/04/25 02:04:14;;;;;;;;;;;6.80;99.90;;;;;;5080554;28;20043;-68
2022/04/25 02:06:40;;;;;;;4.43;3.35;;;6.90;99.90;;;;;;5085409;28;19927;-65
2022/04/25 02:09:05;;;;;;;4.20;3.53;;;6.80;99.90;;;;;;5093285;28;20032;-65
2022/04/25 02:11:31;;;;;;;;;;;6.80;99.90;;;;;;5087353;28;20368;-65
2022/04/25 02:13:57;;;;;;;3.83;2.97;;;6.70;99.90;;;;;;5086738;28;19920;-66
2022/04/25 02:16:24;;;;;;;;;;;6.70;99.90;;;;;;5087212;28;20048;-67
2022/04/25 02:18:50;;;;;;;5.13;2.95;;;6.80;99.90;;;;;;5086152;28;20367;-67
2022/04/25 02:21:16;;;;;;;4.25;3.13;;;6.70;99.90;;;;;;5086199;28;20043;-67
2022/04/25 02:23:41;;;;;;;;;;;6.60;99.90;;;;;;5086884;28;20044;-68
2022/04/25 02:26:10;;;;;;;5.15;3.33;;;6.50;99.90;;;;;;5085593;28;19920;-68
2022/04/25 02:28:37;;;;;;;3.42;2.90;;;6.60;99.90;;;;;;5083471;28;20032;-65
2022/04/25 02:31:05;;;;;;;4.63;3.70;;;6.60;99.90;;;;;;5084996;28;20044;-69
2022/04/25 02:33:32;;;;;;;4.95;3.40;;;6.50;99.90;;;;;;5085933;28;20093;-65
2022/04/25 02:35:58;;;;;;;4.72;3.50;;;6.50;99.90;;;;;;5082361;28;20044;-67
2022/04/25 02:38:24;;;;;;;4.32;3.25;;;6.50;99.90;;;;;;5093223;28;20043;-65
2022/04/25 02:41:04;;;;;;;;;;;6.50;99.90;;;;;;5088611;28;20118;-66
2022/04/25 02:43:40;;;;;;;3.97;3.20;;;6.50;99.90;;;;;;5084863;28;20546;-70
2022/04/25 02:46:07;;;;;;;;;;;6.50;99.90;;;;;;5086130;28;20094;-67
2022/04/25 02:48:34;;;;;;;4.68;3.10;;;6.50;99.90;;;;;;5086342;28;19960;-68
2022/04/25 02:51:02;;;;;;;4.10;3.22;;;6.50;99.90;;;;;;5085798;28;20127;-66
2022/04/25 02:53:28;;;;;;;4.22;3.40;;;6.40;99.90;;;;;;5082965;28;20074;-65
2022/04/25 02:55:53;;;;;;;;;;;6.50;99.90;;;;;;5085101;28;20067;-67
2022/04/25 02:58:20;;;;;;;3.30;2.60;;;6.40;99.90;;;;;;5085326;28;19942;-65
2022/04/25 03:00:46;;;;;;;3.78;2.83;;;6.40;99.90;;;;;;5084819;28;20036;-67
2022/04/25 03:03:13;;;;;;;4.25;2.55;;;6.30;99.90;;;;;;5086012;28;20105;-66
2022/04/25 03:05:41;;;;;;;3.85;2.38;;;6.20;99.90;;;;;;5085775;28;20122;-67
2022/04/25 03:08:07;;;;;;;1.98;1.70;;;6.20;99.90;;;;;;5092916;28;20044;-66
2022/04/25 03:10:32;;;;;;;;;;;6.20;99.90;;;;;;5088732;28;20040;-66
2022/04/25 03:13:00;;;;;;;2.90;1.80;;;6.20;99.90;;;;;;5083981;28;19927;-67
2022/04/25 03:15:26;;;;;;;2.30;1.60;;;6.20;99.90;;;;;;5085682;28;20041;-66
2022/04/25 03:17:51;;;;;;;;;;;6.10;99.90;;;;;;5087871;28;20521;-65
2022/04/25 03:20:18;;;;;;;1.65;1.40;;;6.10;99.90;;;;;;5085835;28;19923;-68
2022/04/25 03:22:45;;;;;;;2.50;1.80;;;6.10;99.90;;;;;;5084978;28;20055;-67
2022/04/25 03:25:11;;;;;;;2.30;1.67;;;6.10;99.90;;;;;;5086158;28;20047;-68
2022/04/25 03:27:36;;;;;;;;;;;6.10;99.90;;;;;;5085173;28;20105;-67
2022/04/25 03:30:02;;;;;;;4.22;1.45;;;6.10;99.90;;;;;;5086205;28;19924;-65
2022/04/25 03:32:28;;;;;;;1.77;1.58;;;6.10;99.90;;;;;;5084241;28;20040;-65
2022/04/25 03:34:53;;;;;;;2.10;1.58;;;6.10;99.90;;;;;;5085548;28;20666;-69
2022/04/25 03:37:20;;;;;;;2.33;1.77;;;6.10;99.90;;;;;;5078320;28;20044;-64
2022/04/25 03:39:46;;;;;;;2.03;1.40;;;6.10;99.90;;;;;;5084862;28;20044;-67
2022/04/25 03:42:12;;;;;;;;;;;6.10;99.90;;;;;;5084931;28;20043;-65
2022/04/25 03:44:39;;;;;;;2.85;1.58;;;6.10;99.90;;;;;;5085221;28;19924;-65
2022/04/25 03:47:05;;;;;;;2.22;1.48;;;6.20;99.90;;;;;;5085278;28;20056;-67
2022/04/25 03:49:31;;;;;;;3.65;1.80;;;6.10;99.90;;;;;;5085389;28;20122;-65
2022/04/25 03:51:56;;;;;;;2.47;1.70;;;6.10;99.90;;;;;;5084520;28;20043;-69
2022/04/25 03:57:12;;;;;;;1.77;1.48;;;6.10;99.90;;;;;;5088492;28;20010;-67
2022/04/25 03:59:39;;;;;;;3.88;1.30;;;6.10;99.90;;;;;;5090411;28;20069;-65
2022/04/25 04:02:05;;;;;;;3.22;1.60;;;6.20;99.90;;;;;;5086899;28;20118;-67
2022/04/25 04:04:31;;;;;;;;;;;6.20;99.90;;;;;;5088749;28;20131;-65
2022/04/25 04:06:57;;;;;;;3.20;1.50;;;6.20;99.90;;;;;;5088207;28;19927;-66
2022/04/25 04:12:07;;;;;;;1.90;1.58;;;6.20;99.90;;;;;;5092008;28;19960;-68
2022/04/25 04:14:32;;;;;;;;;;;6.30;99.90;;;;;;5089505;28;20562;-66
2022/04/25 04:16:58;;;;;;;2.55;1.42;;;6.30;99.90;;;;;;5088361;28;19916;-67
2022/04/25 04:19:24;;;;;;;2.35;1.95;;;6.30;99.90;;;;;;5088833;28;20050;-66
2022/04/25 04:21:50;;;;;;;;;;;6.40;99.90;;;;;;5089211;28;20039;-68
2022/04/25 04:24:15;;;;;;;1.40;1.10;;;6.40;99.90;;;;;;5087515;28;19927;-69
2022/04/25 04:26:42;;;;;;;1.85;1.40;;;6.40;99.90;;;;;;5088212;28;20040;-65
2022/04/25 04:29:08;;;;;;;2.00;1.55;;;6.40;99.90;;;;;;5087847;28;20039;-65
2022/04/25 04:31:34;;;;;;;;;;;6.40;99.90;;;;;;5086465;28;20470;-68
2022/04/25 04:33:59;;;;;;;1.65;1.42;;;6.40;99.90;;;;;;5088111;28;19988;-65
2022/04/25 04:36:26;;;;;;;;;;;6.30;99.90;;;;;;5081341;28;20547;-66
2022/04/25 04:38:52;;;;;;;3.10;1.40;;;6.30;99.90;;;;;;5076174;28;19920;-68
2022/04/25 04:41:17;;;;;;;2.28;1.65;;;6.30;99.90;;;;;;5071834;28;20051;-66
2022/04/25 04:43:43;;;;;;;;;;;6.30;99.90;;;;;;5070707;28;20397;-66
2022/04/25 04:46:09;;;;;;;2.30;1.65;;;6.30;99.90;;;;;;5075111;28;20078;-67
2022/04/25 04:48:35;;;;;;;2.08;1.65;;;6.30;99.90;;;;;;5067272;28;20063;-67
2022/04/25 04:51:01;;;;;;;;;;;6.40;99.90;;;;;;5069325;28;20154;-67
2022/04/25 04:53:27;;;;;;;2.30;2.00;;;6.40;99.90;;;;;;5070347;28;19927;-66
2022/04/25 04:55:53;;;;;;;1.80;1.42;;;6.50;99.90;;;;;;5066573;28;20044;-66
2022/04/25 04:58:19;;;;;;;4.57;2.03;;;6.50;99.90;;;;;;5069822;28;20040;-67
2022/04/25 05:00:46;;;;;;;;;;;6.60;99.90;;;;;;5070469;28;20033;-67
2022/04/25 05:03:15;;;;;;;2.60;2.08;;;6.60;99.90;;;;;;5070897;28;19983;-67
2022/04/25 05:05:45;;;;;;;3.13;2.15;;;6.60;99.90;;;;;;5071056;28;20044;-65
2022/04/25 05:08:11;;;;;;;5.13;2.80;;;6.60;99.90;;;;;;5077571;28;20055;-66
2022/04/25 05:10:36;;;;;;;;;;;6.60;99.90;;;;;;5075360;28;20107;-66
2022/04/25 05:13:03;;;;;;;3.03;2.15;;;6.60;99.90;;;;;;5072970;28;19920;-66
2022/04/25 05:15:30;;;;;;;4.95;3.00;;;6.60;99.90;;;;;;5077893;28;20048;-65
2022/04/25 05:17:55;;;;;;;6.10;2.97;;;6.60;99.90;;;;;;5079599;28;20067;-64
2022/04/25 05:20:24;;;;;;;;;;;6.70;99.90;;;;;;5071716;28;20742;-66
2022/04/25 05:22:51;;;;;;;3.83;2.78;;;6.70;99.90;;;;;;5086021;28;20284;-64
2022/04/25 05:25:19;;;;;;;4.20;3.13;;;6.70;99.90;;;;;;5086876;28;20040;-70
2022/04/25 05:27:46;;;;;;;3.75;2.70;;;6.60;99.90;;;;;;5086446;28;20048;-69
2022/04/25 05:30:12;;;;;;;7.05;3.22;;;6.60;99.90;;;;;;5084193;28;20051;-64
2022/04/25 05:32:48;;;;;;;7.68;4.38;;;6.60;99.90;;;;;;5087237;28;20139;-68
2022/04/25 05:35:18;;;;;;;4.32;3.42;;;6.70;99.90;;;;;;5087604;28;20051;-65
2022/04/25 05:37:45;;;;;;;11.57;6.57;;;6.70;99.90;;;;;;5083540;28;20047;-67
2022/04/25 05:40:12;;;;;;;10.93;7.50;;;6.60;99.90;;;;;;5085727;28;20039;-67
2022/04/25 05:42:40;;;;;;;12.07;8.30;;;6.60;99.90;;;;;;5079790;28;20036;-66
2022/04/25 05:45:10;;;;;;;10.63;8.23;;;6.70;99.90;;;;;;5082340;28;20119;-64
2022/04/25 05:47:37;;;;;;;7.85;6.00;;;6.70;99.90;;;;;;5087094;28;20655;-65
2022/04/25 05:52:49;;;;;;;7.22;4.88;;;6.90;99.90;;;;;;5082756;28;20488;-64
2022/04/25 05:55:14;;;;;;;;;;;7.00;99.90;;;;;;5088499;28;20189;-64
2022/04/25 05:57:40;;;;;;;7.25;5.00;;;7.00;99.90;;;;;;5084125;28;20335;-64
2022/04/25 06:00:08;;;;;;;7.25;4.57;;;7.10;99.90;;;;;;5078941;28;20047;-66
2022/04/25 06:02:40;;;;;;;6.50;4.97;;;7.10;99.90;;;;;;5084525;28;20105;-68
2022/04/25 06:05:09;;;;;;;6.40;4.70;;;7.10;99.90;;;;;;5083064;28;20040;-63
2022/04/25 06:07:36;;;;;;;7.05;5.28;;;7.10;99.90;;;;;;5078601;28;20040;-64
2022/04/25 06:10:03;;;;;;;7.57;5.78;;;7.10;99.90;;;;;;5085368;28;20032;-65
2022/04/25 06:12:29;;;;;;;7.25;5.45;;;7.10;99.90;;;;;;5085425;28;20028;-66
2022/04/25 06:14:55;;;;;;;;;;;7.10;99.90;;;;;;5085790;28;20036;-63
2022/04/25 06:17:21;;;;;;;7.10;4.87;;;7.10;99.90;;;;;;5085461;28;19916;-64
2022/04/25 06:19:47;;;;;;;;;;;7.00;99.90;;;;;;5086283;28;20062;-64
2022/04/25 06:22:12;;;;;;;7.22;5.00;;;7.10;99.90;;;;;;5084615;28;19919;-65
2022/04/25 06:24:38;;;;;;;8.77;6.32;;;7.00;99.90;;;;;;5085970;28;20170;-65
2022/04/25 06:27:05;;;;;;;7.20;5.65;;;7.00;99.90;;;;;;5085069;28;20109;-65
2022/04/25 06:29:31;;;;;;;8.20;5.53;;;7.00;99.90;;;;;;5085360;28;20137;-64
2022/04/25 06:31:58;;;;;;;9.10;5.50;;;7.10;99.90;;;;;;5084558;28;20048;-64
2022/04/25 06:34:24;;;;;;;10.23;6.50;;;7.10;99.90;;;;;;5084489;28;20123;-65
2022/04/25 06:36:50;;;;;;;9.38;6.35;;;7.10;99.90;;;;;;5084122;28;20466;-64
2022/04/25 06:39:16;;;;;;;;;;;7.20;99.90;;;;;;5093278;28;20032;-64
2022/04/25 06:41:42;;;;;;;10.23;6.63;;;7.10;99.90;;;;;;5084987;28;20450;-65
2022/04/25 06:44:07;;;;;;;8.00;6.05;;;7.10;99.90;;;;;;5084241;28;20039;-65
2022/04/25 06:46:33;;;;;;;14.43;8.93;;;7.20;99.90;;;;;;5083646;28;20097;-64
2022/04/25 06:51:43;;;;;;;10.80;7.70;;;7.00;99.90;;;;;;5083956;28;20035;-66
2022/04/25 06:54:08;;;;;;;;;;;7.00;99.90;;;;;;5085503;28;20569;-64
2022/04/25 06:56:35;;;;;;;10.38;7.13;;;6.90;99.90;;;;;;5083942;28;19923;-64
2022/04/25 06:59:01;;;;;;;13.57;8.60;;;6.80;99.90;;;;;;5085194;28;20044;-65
2022/04/25 07:01:26;;;;;;;;;;;6.90;99.90;;;;;;5085657;28;20096;-64
2022/04/25 07:03:52;;;;;;;12.23;8.82;;;6.80;99.90;;;;;;5087138;28;19919;-64
2022/04/25 07:06:18;;;;;;;;;;;6.70;99.90;;;;;;5085851;28;20067;-64
2022/04/25 07:08:43;;;;;;;10.77;7.90;;;6.80;99.90;;;;;;5092055;28;19916;-65
2022/04/25 07:11:09;;;;;;;;;;;6.80;99.90;;;;;;5105044;28;20032;-64
2022/04/25 07:13:35;;;;;;;14.05;9.50;;;6.80;99.90;;;;;;5101526;28;20002;-64
2022/04/25 07:16:00;;;;;;;15.63;10.10;;;6.70;99.90;;;;;;5084971;28;20698;-65
2022/04/25 07:18:26;;;;;;;15.30;9.73;;;6.80;99.90;;;;;;5084529;28;20072;-64
2022/04/25 07:20:52;;;;;;;16.23;9.60;;;6.90;99.90;;;;;;5084572;28;20142;-64
2022/04/25 07:28:49;;;;;;;15.23;9.77;;;6.60;99.90;;;;;;5084062;28;20036;-62
2022/04/25 07:31:18;;;;;;;20.23;11.57;;;6.70;99.90;;;;;;5080516;28;20033;-64
2022/04/25 07:33:45;;;;;;;16.50;9.98;;;6.70;99.90;;;;;;5088565;28;20484;-64
2022/04/25 07:36:13;;;;;;;14.27;9.48;;;6.80;99.90;;;;;;5086756;28;20040;-64
2022/04/25 07:38:41;;;;;;;13.52;9.70;;;6.80;99.90;;;;;;5089804;28;20129;-64
2022/04/25 07:41:10;;;;;;;20.88;9.82;;;6.90;99.90;;;;;;5085650;28;20459;-64
2022/04/25 07:43:35;;;;;;;17.65;11.48;;;6.90;99.90;;;;;;5084443;28;20048;-65
2022/04/25 07:46:01;;;;;;;;;;;6.90;99.90;;;;;;5084566;28;20195;-63
2022/04/25 07:48:27;;;;;;;18.05;10.40;;;6.90;99.90;;;;;;5086802;28;20391;-66
2022/04/25 07:50:53;;;;;;;18.45;12.13;;;6.90;99.90;;;;;;5085460;28;20043;-64
2022/04/25 07:53:19;;;;;;;;;;;6.80;99.90;;;;;;5085554;28;20040;-64
2022/04/25 07:55:44;;;;;;;16.77;11.73;;;6.80;99.90;;;;;;5083604;28;19916;-64
2022/04/25 07:58:10;;;;;;;;;;;6.80;99.90;;;;;;5088555;28;20039;-65
2022/04/25 08:00:38;;;;;;;13.32;9.35;;;6.80;99.90;;;;;;5083782;28;19961;-65
2022/04/25 08:03:04;;;;;;;14.30;9.68;;;6.90;99.90;;;;;;5084393;28;20446;-63
2022/04/25 08:05:29;;;;;;;;;;;6.90;99.90;;;;;;5089316;28;20536;-63
2022/04/25 08:07:55;;;;;;;14.55;9.10;;;7.00;99.90;;;;;;5087584;28;19995;-63
2022/04/25 08:10:21;;;;;;;17.45;9.50;;;7.00;99.90;;;;;;5087732;28;20036;-66
2022/04/25 08:18:16;;;;;;;13.82;9.38;;;7.10;99.90;;;;;;5075037;28;20040;-64
2022/04/25 08:20:42;;;;;;;;;;;7.20;99.90;;;;;;5088267;28;20161;-65
2022/04/25 08:23:11;;;;;;;13.60;8.20;;;7.20;99.90;;;;;;5080714;28;19924;-65
2022/04/25 08:25:38;;;;;;;9.90;7.43;;;7.10;99.90;;;;;;5087903;28;20109;-66
2022/04/25 08:28:05;;;;;;;11.30;7.45;;;7.10;99.90;;;;;;5085954;28;20049;-64
2022/04/25 08:30:31;;;;;;;9.50;7.00;;;7.10;99.90;;;;;;5086074;28;20063;-67
2022/04/25 08:32:57;;;;;;;;;;;7.20;99.90;;;;;;5088318;28;20043;-64
2022/04/25 08:35:23;;;;;;;10.13;5.88;;;7.30;99.90;;;;;;5087599;28;19938;-66
2022/04/25 08:37:49;;;;;;;7.00;5.20;;;7.40;99.90;;;;;;5094616;28;20050;-65
2022/04/25 08:40:15;;;;;;;;;;;7.40;99.90;;;;;;5088006;28;20040;-64
2022/04/25 08:42:41;;;;;;;5.63;4.68;;;7.40;99.90;;;;;;5087948;28;20403;-65
2022/04/25 08:45:09;;;;;;;9.43;6.60;;;7.30;99.90;;;;;;5087154;28;20071;-65
2022/04/25 08:47:43;;;;;;;6.80;5.05;;;7.30;99.90;;;;;;5086566;28;20036;-65
2022/04/25 08:50:09;;;;;;;7.22;4.90;;;7.20;99.90;;;;;;5080710;28;20887;-65
2022/04/25 08:52:35;;;;;;;;;;;7.10;99.90;;;;;;5086829;28;20044;-65
2022/04/25 08:55:02;;;;;;;3.58;2.75;;;7.10;99.90;;;;;;5075895;28;19920;-64
2022/04/25 08:57:31;;;;;;;3.63;2.75;;;7.10;99.90;;;;;;5086799;28;20040;-65
2022/04/25 08:59:57;;;;;;;4.18;2.97;;;7.20;99.90;;;;;;5086302;28;20052;-65
2022/04/25 09:02:23;;;;;;;4.85;3.05;;;7.30;99.90;;;;;;5081559;28;20075;-66
2022/04/25 09:04:49;;;;;;;;;;;7.30;99.90;;;;;;5068093;28;20094;-66
2022/04/25 09:07:16;;;;;;;4.53;2.80;;;7.50;99.90;;;;;;5082719;28;20137;-66
2022/04/25 09:09:42;;;;;;;4.60;3.15;;;7.60;99.90;;;;;;5081585;28;20039;-65
2022/04/25 09:12:10;;;;;;;4.22;2.75;;;7.60;99.90;;;;;;5086471;28;20048;-64
2022/04/25 09:14:44;;;;;;;4.95;3.10;;;7.60;99.90;;;;;;5086085;28;20124;-63
2022/04/25 09:17:10;;;;;;;6.00;3.40;;;7.60;99.90;;;;;;5083648;28;20044;-63
2022/04/25 09:19:37;;;;;;;4.35;3.58;;;7.60;99.90;;;;;;5087924;28;20040;-65
2022/04/25 09:22:04;;;;;;;3.38;2.55;;;7.70;99.90;;;;;;5086642;28;20489;-67
2022/04/25 09:24:35;;;;;;;4.45;3.25;;;7.70;99.90;;;;;;5092206;28;20032;-63
2022/04/25 09:27:12;;;;;;;6.22;3.83;;;7.70;99.90;;;;;;5091003;28;20466;-66
2022/04/25 09:29:39;;;;;;;4.18;3.35;;;7.60;99.90;;;;;;5086104;28;20052;-66
2022/04/25 09:32:06;;;;;;;6.15;4.35;;;7.70;99.90;;;;;;5083976;28;20039;-64
2022/04/25 09:37:18;;;;;;;7.70;3.92;;;7.60;99.90;;;;;;5086981;28;20048;-66
2022/04/25 09:39:44;;;;;;;6.43;4.20;;;7.60;99.90;;;;;;5086942;28;20416;-65
2022/04/25 09:42:10;;;;;;;10.30;5.80;;;7.50;99.90;;;;;;5086237;28;20051;-66
2022/04/25 09:44:59;;;;;;;4.63;3.53;;;7.50;99.90;;;;;;5085902;28;20048;-64
2022/04/25 09:47:31;;;;;;;7.07;4.65;;;7.50;99.90;;;;;;5086589;28;20514;-66
2022/04/25 09:50:08;;;;;;;6.10;4.15;;;7.50;99.90;;;;;;5086241;28;20113;-66
2022/04/25 09:52:55;;;;;;;4.10;2.97;;;7.60;99.90;;;;;;5084629;28;20645;-67
2022/04/25 09:55:22;;;;;;;4.05;2.85;;;7.70;99.90;;;;;;5087974;28;20512;-66
2022/04/25 09:57:50;;;;;;;2.65;2.28;;;7.80;99.90;;;;;;5085764;28;20125;-66
2022/04/25 10:00:33;;;;;;;3.28;2.33;;;7.90;99.90;;;;;;5078037;28;20514;-67
2022/04/25 10:03:02;;;;;;;2.67;2.22;;;7.90;99.90;;;;;;5084083;28;20495;-65
2022/04/25 10:05:46;;;;;;;2.97;2.42;;;7.90;99.90;;;;;;5085148;28;20109;-65
2022/04/25 10:08:14;;;;;;;3.97;2.45;;;7.90;99.90;;;;;;5079579;28;20052;-64
2022/04/25 10:10:46;;;;;;;3.70;2.50;;;8.00;99.90;;;;;;5081111;28;20044;-65
2022/04/25 10:13:12;;;;;;;3.00;2.08;;;8.10;99.90;;;;;;5079203;28;20040;-64
2022/04/25 10:15:39;;;;;;;;;;;8.10;99.90;;;;;;5074628;28;20044;-65
2022/04/25 10:18:05;;;;;;;;;;;8.10;99.90;;;;;;5083028;28;19916;-66
2022/04/25 10:20:34;;;;;;;2.72;2.10;;;8.20;99.90;;;;;;5079011;28;19916;-65
2022/04/25 10:23:02;;;;;;;4.72;2.38;;;8.40;99.90;;;;;;5077220;28;20515;-67
2022/04/25 10:25:28;;;;;;;3.65;2.40;;;8.20;99.90;;;;;;5081821;28;20044;-65
2022/04/25 10:27:53;;;;;;;;;;;8.10;99.90;;;;;;5077081;28;20047;-64
2022/04/25 10:30:20;;;;;;;3.60;2.28;;;8.20;99.90;;;;;;5074528;28;19923;-66
2022/04/25 10:32:46;;;;;;;3.25;2.53;;;8.20;99.90;;;;;;5081856;28;20587;-66
2022/04/25 10:35:16;;;;;;;;;;;8.30;99.90;;;;;;5083235;28;20039;-64
2022/04/25 10:37:43;;;;;;;2.42;1.85;;;8.50;99.90;;;;;;5084987;28;20395;-66
2022/04/25 10:40:13;;;;;;;2.55;2.05;;;8.60;99.90;;;;;;5082584;28;20064;-67
2022/04/25 10:45:59;;;;;;;5.28;2.40;;;9.10;99.90;;;;;;5084022;28;20084;-66
2022/04/25 10:48:26;;;;;;;4.07;2.70;;;9.20;99.90;;;;;;5082291;28;20044;-66
2022/04/25 10:51:18;;;;;;;2.80;2.33;;;9.20;99.90;;;;;;5085383;28;20048;-67
2022/04/25 10:54:00;;;;;;;3.00;2.47;;;9.50;99.90;;;;;;5089753;28;20046;-66
2022/04/25 10:56:27;;;;;;;3.38;2.80;;;9.70;99.90;;;;;;5078246;28;20044;-66
2022/04/25 10:59:27;;;;;;;4.25;2.50;;;9.80;99.90;;;;;;5085268;28;20048;-65
2022/04/25 11:01:56;;;;;;;2.67;2.30;;;10.00;99.90;;;;;;5071430;28;20044;-65
2022/04/25 11:04:22;;;;;;;3.03;2.60;;;9.90;99.90;;;;;;5082763;28;20044;-67
2022/04/25 11:06:48;;;;;;;;;;;9.60;99.90;;;;;;5086132;28;20125;-64
2022/04/25 11:09:37;;;;;;;4.25;2.58;;;9.70;99.90;;;;;;5095204;28;19916;-64
2022/04/25 11:12:03;;;;;;;2.47;1.83;;;9.60;99.90;;;;;;5084473;28;20036;-65
2022/04/25 11:14:30;;;;;;;;;;;9.80;99.90;;;;;;5084547;28;20112;-63
2022/04/25 11:17:13;;;;;;;2.22;1.98;;;9.80;99.90;;;;;;5085442;28;19955;-66
2022/04/25 11:19:54;;;;;;;2.00;1.80;;;9.90;99.90;;;;;;5081384;28;20079;-65
2022/04/25 11:22:29;;;;;;;1.77;1.40;;;10.10;99.90;;;;;;5085099;28;20048;-67
2022/04/25 11:24:55;;;;;;;1.70;1.40;;;10.00;99.90;;;;;;5085091;28;20040;-66
2022/04/25 11:27:21;;;;;;;1.98;1.77;;;10.30;99.90;;;;;;5083041;28;20771;-65
2022/04/25 11:30:16;;;;;;;1.98;1.60;;;10.40;99.90;;;;;;5081474;28;20039;-65
2022/04/25 11:32:43;;;;;;;3.00;2.20;;;10.50;99.90;;;;;;5079534;28;20469;-67
2022/04/25 11:35:09;;;;;;;2.55;2.17;;;10.20;99.90;;;;;;5085337;28;20085;-66
2022/04/25 11:37:35;;;;;;;;;;;10.00;99.90;;;;;;5084251;28;20126;-64
2022/04/25 11:40:07;;;;;;;7.35;3.65;;;9.80;99.90;;;;;;5083341;28;19916;-66
2022/04/25 11:42:34;;;;;;;6.65;4.55;;;9.60;99.90;;;;;;5084927;28;20062;-65
2022/04/25 11:45:01;;;;;;;5.53;3.90;;;9.50;99.90;;;;;;5080193;28;20096;-66
2022/04/25 11:47:29;;;;;;;7.72;5.00;;;9.50;99.90;;;;;;5085202;28;20078;-65
2022/04/25 11:49:57;;;;;;;4.82;3.50;;;9.50;99.90;;;;;;5084277;28;20052;-68
2022/04/25 11:52:22;;;;;;;5.95;3.33;;;9.50;99.90;;;;;;5083066;28;20085;-66
2022/04/25 11:54:49;;;;;;;;;;;9.50;99.90;;;;;;5081714;28;20135;-65
2022/04/25 11:57:15;;;;;;;4.17;3.37;;;9.30;99.90;;;;;;5084660;28;19927;-66
2022/04/25 11:59:40;;;;;;;;;;;9.30;99.90;;;;;;5080562;28;20044;-66
2022/04/25 12:02:07;;;;;;;5.15;3.75;;;9.40;99.90;;;;;;5076642;28;19927;-67
2022/04/25 12:04:33;;;;;;;5.72;4.30;;;9.40;99.90;;;;;;5084208;28;20043;-66
2022/04/25 12:07:03;;;;;;;6.75;4.18;;;9.30;99.90;;;;;;5084788;28;20752;-67
2022/04/25 12:18:18;;;;;;;4.03;2.83;;;9.50;99.90;;;;;;5088442;28;20055;-66
2022/04/25 12:20:59;;;;;;;4.53;3.10;;;9.60;99.90;;;;;;5085614;28;20032;-66
2022/04/25 12:23:28;;;;;;;3.67;2.40;;;9.90;99.90;;;;;;5076406;28;20044;-66
2022/04/25 12:25:55;;;;;;;2.83;2.50;;;10.20;99.90;;;;;;5096020;28;20039;-65
2022/04/25 12:28:23;;;;;;;3.03;2.42;;;10.30;99.90;;;;;;5106623;28;20075;-66
2022/04/25 12:30:55;;;;;;;3.90;2.55;;;10.40;99.90;;;;;;5086191;28;20031;-66
2022/04/25 12:33:31;;;;;;;2.35;2.15;;;10.50;99.90;;;;;;5084350;28;20682;-67
2022/04/25 12:36:18;;;;;;;3.55;2.90;;;10.50;99.90;;;;;;5088183;28;20044;-65
2022/04/25 12:38:49;;;;;;;3.95;3.33;;;10.30;99.90;;;;;;5088491;28;20040;-66
2022/04/25 12:41:23;;;;;;;4.95;3.15;;;10.30;99.90;;;;;;5087592;28;20040;-66
2022/04/25 12:43:50;;;;;;;4.00;3.15;;;10.20;99.90;;;;;;5087466;28;20036;-67
2022/04/25 12:46:38;;;;;;;4.57;3.35;;;10.00;99.90;;;;;;5087905;28;20673;-64
2022/04/25 12:49:05;;;;;;;3.70;2.60;;;10.00;99.90;;;;;;5085805;28;20071;-64
2022/04/25 12:51:56;;;;;;;2.75;2.35;;;10.00;99.90;;;;;;5087605;28;20040;-66
2022/04/25 12:54:31;;;;;;;3.05;2.28;;;10.30;99.90;;;;;;5074825;28;20043;-67
2022/04/25 12:57:24;;;;;;;2.78;2.10;;;10.50;99.90;;;;;;5088232;28;20066;-66
2022/04/25 12:59:52;;;;;;;2.70;2.30;;;10.40;99.90;;;;;;5087509;28;20057;-66
2022/04/25 13:02:35;;;;;;;3.05;2.30;;;10.40;99.90;;;;;;5086569;28;20032;-66
2022/04/25 13:05:07;;;;;;;4.03;2.65;;;10.20;99.90;;;;;;5087215;28;20061;-67
2022/04/25 13:07:42;;;;;;;3.53;2.70;;;10.00;99.90;;;;;;5083881;28;20493;-66
2022/04/25 13:10:13;;;;;;;3.97;2.65;;;9.70;99.90;;;;;;5084513;28;20598;-65
2022/04/25 13:12:40;;;;;;;3.35;2.60;;;9.50;99.90;;;;;;5082481;28;20527;-65
2022/04/25 13:15:12;;;;;;;3.70;2.38;;;9.20;99.90;;;;;;5086153;28;20473;-65
2022/04/25 13:17:38;;;;;;;7.05;3.50;;;9.20;99.90;;;;;;5085286;28;20048;-67
2022/04/25 13:20:12;;;;;;;3.55;2.75;;;9.30;99.90;;;;;;5082333;28;20048;-67
2022/04/25 13:22:38;;;;;;;2.92;2.35;;;9.50;99.90;;;;;;5085259;28;20085;-67
2022/04/25 13:25:06;;;;;;;4.20;2.88;;;9.60;99.90;;;;;;5087074;28;20032;-66
2022/04/25 13:27:34;;;;;;;4.05;2.75;;;9.70;99.90;;;;;;5107948;28;20036;-67
2022/04/25 13:30:00;;;;;;;2.85;2.40;;;9.70;99.90;;;;;;5101756;28;20032;-66
2022/04/25 13:32:26;;;;;;;;;;;9.90;99.90;;;;;;5086532;28;20525;-65
2022/04/25 13:34:52;;;;;;;3.60;2.78;;;10.00;99.90;;;;;;5084990;28;19950;-66
2022/04/25 13:37:17;;;;;;;;;;;10.20;99.90;;;;;;5075263;28;20491;-65
2022/04/25 13:39:43;;;;;;;3.10;2.20;;;10.30;99.90;;;;;;5081999;28;19920;-65
2022/04/25 13:42:09;;;;;;;;;;;10.50;99.90;;;;;;5082524;28;20035;-64
2022/04/25 13:44:34;;;;;;;4.20;2.88;;;10.50;99.90;;;;;;5086696;28;19916;-65
2022/04/25 13:47:00;;;;;;;;;;;10.50;99.90;;;;;;5088214;28;20036;-65
2022/04/25 13:49:26;;;;;;;4.22;2.95;;;10.50;99.90;;;;;;5086775;28;19931;-64
2022/04/25 13:51:52;;;;;;;;;;;10.60;99.90;;;;;;5087116;28;20094;-65
2022/04/25 13:54:18;;;;;;;3.63;2.67;;;10.50;99.90;;;;;;5091399;28;20014;-64